createdAt,value
2022-08-22T00:02:17.566Z,56.90
2022-08-22T00:02:44.549Z,53.80
2022-08-22T00:02:58.606Z,54.50
2022-08-22T00:03:10.896Z,53.80
2022-08-22T00:04:48.537Z,58.00
2022-08-22T00:07:21.487Z,57.70
2022-08-22T00:10:04.395Z,57.90
2022-08-22T00:12:34.924Z,57.60
2022-08-22T00:15:06.164Z,57.50
2022-08-22T00:17:44.662Z,57.60
2022-08-22T00:20:18.674Z,57.60
2022-08-22T00:22:49.133Z,57.90
2022-08-22T00:25:39.340Z,58.10
2022-08-22T00:28:09.659Z,58.00
2022-08-22T00:30:42.518Z,58.40
2022-08-22T00:33:15.259Z,58.30
2022-08-22T00:35:47.014Z,58.40
2022-08-22T00:38:16.644Z,58.50
2022-08-22T00:40:53.382Z,58.60
2022-08-22T00:43:47.223Z,58.70
2022-08-22T00:46:24.711Z,58.80
2022-08-22T00:49:12.119Z,58.90
2022-08-22T00:52:25.631Z,59.00
2022-08-22T00:55:09.936Z,59.10
2022-08-22T00:57:51.979Z,59.10
2022-08-22T01:00:21.664Z,59.20
2022-08-22T01:03:05.316Z,59.40
2022-08-22T01:05:48.998Z,59.30
2022-08-22T01:08:24.407Z,59.40
2022-08-22T01:11:01.617Z,59.40
2022-08-22T01:13:40.311Z,59.40
2022-08-22T01:16:16.144Z,59.70
2022-08-22T01:19:18.334Z,59.70
2022-08-22T01:22:30.141Z,59.80
2022-08-22T01:25:27.081Z,59.80
2022-08-22T01:28:10.693Z,60.00
2022-08-22T01:30:48.543Z,60.10
2022-08-22T01:33:42.779Z,60.20
2022-08-22T01:36:37.710Z,60.30
2022-08-22T01:39:16.332Z,60.50
2022-08-22T01:42:05.709Z,60.50
2022-08-22T01:44:53.218Z,60.70
2022-08-22T01:47:23.033Z,60.90
2022-08-22T01:49:54.333Z,60.90
2022-08-22T01:52:37.065Z,60.90
2022-08-22T01:55:07.883Z,61.00
2022-08-22T01:57:49.732Z,61.20
2022-08-22T02:00:17.784Z,61.30
2022-08-22T02:02:53.553Z,61.40
2022-08-22T02:05:25.867Z,61.50
2022-08-22T02:07:58.094Z,61.50
2022-08-22T02:10:27.407Z,61.60
2022-08-22T02:13:02.097Z,61.70
2022-08-22T02:15:35.860Z,61.60
2022-08-22T02:18:14.491Z,61.80
2022-08-22T02:20:54.434Z,62.00
2022-08-22T02:23:25.784Z,62.90
2022-08-22T02:25:55.372Z,62.20
2022-08-22T02:28:36.905Z,62.40
2022-08-22T02:31:16.632Z,62.50
2022-08-22T02:33:50.899Z,62.60
2022-08-22T02:36:19.142Z,62.60
2022-08-22T02:38:56.540Z,62.70
2022-08-22T02:41:26.843Z,62.80
2022-08-22T02:43:55.643Z,62.90
2022-08-22T02:46:27.124Z,62.80
2022-08-22T02:49:01.396Z,63.10
2022-08-22T02:51:34.041Z,63.10
2022-08-22T02:54:13.413Z,64.00
2022-08-22T02:56:45.423Z,63.20
2022-08-22T02:59:20.801Z,63.20
2022-08-22T03:01:48.553Z,63.20
2022-08-22T03:04:23.879Z,63.30
2022-08-22T03:07:11.766Z,63.30
2022-08-22T03:09:45.054Z,63.40
2022-08-22T03:12:18.906Z,63.50
2022-08-22T03:14:50.543Z,63.50
2022-08-22T03:17:19.913Z,63.50
2022-08-22T03:19:53.194Z,63.60
2022-08-22T03:22:23.145Z,63.70
2022-08-22T03:24:55.497Z,63.70
2022-08-22T03:27:32.418Z,63.70
2022-08-22T03:30:04.382Z,63.70
2022-08-22T03:32:47.474Z,63.80
2022-08-22T03:35:24.860Z,63.90
2022-08-22T03:37:54.724Z,63.80
2022-08-22T03:40:31.528Z,63.90
2022-08-22T03:43:34.062Z,64.00
2022-08-22T03:46:55.388Z,63.90
2022-08-22T03:49:36.747Z,64.00
2022-08-22T03:52:25.452Z,64.00
2022-08-22T03:55:13.709Z,64.00
2022-08-22T03:57:55.359Z,64.00
2022-08-22T04:00:42.811Z,64.10
2022-08-22T04:03:57.217Z,64.10
2022-08-22T04:06:49.555Z,64.10
2022-08-22T04:09:43.133Z,64.10
2022-08-22T04:12:40.008Z,64.20
2022-08-22T04:15:25.963Z,65.10
2022-08-22T04:18:09.310Z,64.40
2022-08-22T04:21:07.330Z,64.50
2022-08-22T04:23:49.733Z,64.50
2022-08-22T04:26:19.220Z,64.50
2022-08-22T04:28:48.686Z,64.60
2022-08-22T04:31:19.356Z,64.60
2022-08-22T04:33:47.934Z,64.70
2022-08-22T04:36:21.309Z,64.70
2022-08-22T04:38:51.040Z,64.70
2022-08-22T04:41:20.134Z,64.70
2022-08-22T04:43:49.594Z,64.70
2022-08-22T04:46:21.978Z,64.80
2022-08-22T04:48:53.330Z,64.80
2022-08-22T04:51:23.585Z,64.90
2022-08-22T04:54:04.759Z,64.90
2022-08-22T04:56:38.335Z,64.80
2022-08-22T04:59:11.606Z,64.80
2022-08-22T05:01:48.075Z,64.90
2022-08-22T05:04:19.819Z,64.90
2022-08-22T05:06:50.036Z,65.00
2022-08-22T05:09:18.892Z,65.00
2022-08-22T05:11:46.436Z,65.80
2022-08-22T05:14:16.862Z,65.00
2022-08-22T05:16:46.562Z,65.00
2022-08-22T05:19:23.011Z,65.00
2022-08-22T05:21:54.968Z,65.00
2022-08-22T05:24:23.753Z,65.00
2022-08-22T05:26:56.764Z,65.00
2022-08-22T05:29:26.622Z,65.10
2022-08-22T05:31:58.455Z,65.30
2022-08-22T05:34:27.279Z,65.30
2022-08-22T05:36:56.376Z,65.30
2022-08-22T05:39:25.374Z,65.30
2022-08-22T05:41:56.963Z,65.30
2022-08-22T05:44:26.133Z,65.30
2022-08-22T05:46:59.316Z,65.50
2022-08-22T05:49:30.025Z,65.40
2022-08-22T05:52:06.487Z,65.30
2022-08-22T05:54:36.616Z,65.30
2022-08-22T05:57:09.604Z,65.30
2022-08-22T05:59:38.977Z,65.30
2022-08-22T06:02:09.848Z,65.30
2022-08-22T06:04:44.244Z,65.30
2022-08-22T06:07:15.156Z,65.30
2022-08-22T06:10:01.986Z,65.30
2022-08-22T06:12:32.414Z,65.30
2022-08-22T06:15:11.603Z,65.30
2022-08-22T06:17:42.717Z,65.30
2022-08-22T06:20:10.239Z,65.70
2022-08-22T06:22:39.456Z,65.30
2022-08-22T06:25:09.102Z,65.30
2022-08-22T06:27:36.748Z,65.30
2022-08-22T06:30:05.045Z,65.20
2022-08-22T06:32:59.435Z,65.10
2022-08-22T06:35:25.921Z,65.10
2022-08-22T06:37:55.133Z,65.10
2022-08-22T06:40:22.706Z,65.00
2022-08-22T06:42:51.511Z,65.00
2022-08-22T06:45:21.132Z,64.90
2022-08-22T06:47:53.554Z,64.60
2022-08-22T06:50:26.153Z,64.90
2022-08-22T06:52:56.110Z,64.80
2022-08-22T06:55:23.749Z,64.50
2022-08-22T06:57:55.032Z,64.80
2022-08-22T07:00:22.528Z,64.90
2022-08-22T07:02:53.450Z,65.00
2022-08-22T07:05:22.306Z,65.00
2022-08-22T07:07:51.638Z,64.90
2022-08-22T07:10:20.392Z,64.70
2022-08-22T07:12:49.748Z,64.60
2022-08-22T07:15:21.177Z,64.50
2022-08-22T07:17:50.531Z,64.20
2022-08-22T07:20:24.041Z,63.90
2022-08-22T07:22:55.875Z,64.00
2022-08-22T07:25:23.373Z,63.80
2022-08-22T07:28:00.884Z,63.70
2022-08-22T07:30:40.198Z,63.70
2022-08-22T07:33:25.143Z,64.20
2022-08-22T07:35:58.991Z,64.50
2022-08-22T07:38:33.002Z,64.40
2022-08-22T07:41:03.172Z,64.00
2022-08-22T07:43:33.677Z,64.00
2022-08-22T07:46:02.936Z,64.40
2022-08-22T07:48:32.194Z,64.10
2022-08-22T07:51:05.463Z,63.80
2022-08-22T07:53:40.692Z,63.70
2022-08-22T07:56:10.034Z,63.40
2022-08-22T07:58:38.819Z,63.30
2022-08-22T08:01:08.979Z,63.30
2022-08-22T08:03:36.608Z,63.50
2022-08-22T08:06:04.486Z,63.50
2022-08-22T08:08:34.458Z,63.70
2022-08-22T08:11:03.616Z,63.90
2022-08-22T08:13:34.089Z,64.10
2022-08-22T08:16:02.162Z,63.40
2022-08-22T08:18:30.745Z,62.70
2022-08-22T08:21:00.719Z,63.00
2022-08-22T08:23:29.800Z,62.90
2022-08-22T08:26:05.512Z,62.90
2022-08-22T08:28:33.234Z,62.80
2022-08-22T08:31:04.317Z,62.70
2022-08-22T08:33:32.242Z,62.70
2022-08-22T08:36:02.334Z,62.70
2022-08-22T08:38:33.305Z,63.00
2022-08-22T08:41:28.639Z,63.80
2022-08-22T08:43:58.595Z,63.20
2022-08-22T08:46:55.666Z,63.40
2022-08-22T08:49:38.754Z,63.70
2022-08-22T08:52:31.544Z,63.90
2022-08-22T08:55:15.971Z,63.70
2022-08-22T08:58:06.929Z,64.30
2022-08-22T09:00:50.049Z,64.70
2022-08-22T09:03:31.024Z,64.60
2022-08-22T09:06:08.795Z,64.90
2022-08-22T09:09:02.620Z,65.00
2022-08-22T09:11:53.457Z,65.20
2022-08-22T09:14:53.206Z,65.30
2022-08-22T09:17:40.719Z,65.30
2022-08-22T09:20:24.446Z,65.30
2022-08-22T09:23:17.515Z,65.20
2022-08-22T09:25:45.595Z,65.60
2022-08-22T09:28:15.209Z,65.50
2022-08-22T09:30:54.149Z,65.60
2022-08-22T09:33:24.594Z,65.80
2022-08-22T09:35:56.089Z,65.50
2022-08-22T09:38:38.863Z,65.90
2022-08-22T09:41:14.788Z,65.40
2022-08-22T09:43:48.401Z,65.50
2022-08-22T09:46:19.643Z,65.50
2022-08-22T09:48:57.124Z,65.90
2022-08-22T09:51:33.440Z,66.00
2022-08-22T09:54:24.787Z,66.00
2022-08-22T09:57:04.632Z,66.30
2022-08-22T09:59:47.186Z,66.10
2022-08-22T10:02:24.814Z,66.40
2022-08-22T10:05:00.840Z,66.20
2022-08-22T10:08:03.873Z,66.40
2022-08-22T10:10:52.591Z,66.30
2022-08-22T10:13:34.444Z,67.40
2022-08-22T10:16:05.729Z,66.50
2022-08-22T10:18:37.129Z,66.60
2022-08-22T10:21:15.633Z,66.60
2022-08-22T10:23:46.017Z,66.70
2022-08-22T10:26:28.152Z,67.50
2022-08-22T10:28:57.352Z,67.70
2022-08-22T10:31:30.570Z,67.40
2022-08-22T10:34:09.610Z,67.10
2022-08-22T10:36:46.007Z,66.60
2022-08-22T10:39:19.203Z,66.50
2022-08-22T10:42:05.683Z,66.30
2022-08-22T10:44:39.303Z,66.50
2022-08-22T10:47:12.479Z,66.30
2022-08-22T10:49:43.423Z,66.30
2022-08-22T10:52:15.900Z,66.40
2022-08-22T10:54:46.872Z,66.60
2022-08-22T10:57:33.293Z,66.60
2022-08-22T11:00:04.836Z,66.80
2022-08-22T11:02:53.217Z,66.30
2022-08-22T11:05:34.719Z,66.60
2022-08-22T11:08:20.954Z,66.60
2022-08-22T11:11:00.470Z,66.80
2022-08-22T11:13:31.903Z,66.90
2022-08-22T11:16:04.133Z,67.30
2022-08-22T11:18:40.070Z,67.60
2022-08-22T11:21:10.618Z,67.70
2022-08-22T11:23:43.464Z,67.30
2022-08-22T11:26:30.131Z,67.00
2022-08-22T11:29:35.342Z,67.20
2022-08-22T11:32:11.917Z,67.00
2022-08-22T11:34:50.147Z,67.10
2022-08-22T11:37:42.400Z,66.50
2022-08-22T11:40:24.695Z,66.40
2022-08-22T11:42:56.935Z,66.30
2022-08-22T11:45:28.382Z,66.30
2022-08-22T11:48:00.478Z,66.20
2022-08-22T11:50:33.801Z,66.10
2022-08-22T11:53:17.293Z,66.00
2022-08-22T11:55:49.987Z,66.00
2022-08-22T11:58:27.278Z,66.00
2022-08-22T12:01:00.156Z,66.10
2022-08-22T12:03:42.696Z,66.00
2022-08-22T12:06:31.130Z,65.90
2022-08-22T12:09:12.470Z,65.80
2022-08-22T12:11:45.873Z,65.70
2022-08-22T12:14:19.184Z,65.60
2022-08-22T12:16:55.198Z,65.50
2022-08-22T12:19:26.256Z,65.50
2022-08-22T12:22:29.390Z,65.30
2022-08-22T12:25:08.216Z,65.10
2022-08-22T12:27:55.129Z,64.90
2022-08-22T12:30:31.423Z,64.80
2022-08-22T12:33:33.167Z,64.70
2022-08-22T12:36:22.068Z,64.60
2022-08-22T12:38:59.884Z,64.60
2022-08-22T12:41:46.858Z,64.50
2022-08-22T12:44:32.381Z,64.30
2022-08-22T12:47:17.309Z,64.20
2022-08-22T12:49:57.359Z,64.10
2022-08-22T12:52:34.463Z,64.10
2022-08-22T12:55:18.308Z,63.90
2022-08-22T12:57:50.542Z,63.90
2022-08-22T13:00:30.431Z,63.90
2022-08-22T13:02:59.655Z,63.80
2022-08-22T13:05:28.376Z,63.80
2022-08-22T13:07:59.175Z,63.80
2022-08-22T13:10:37.040Z,63.70
2022-08-22T13:13:12.285Z,63.70
2022-08-22T13:15:45.787Z,63.60
2022-08-22T13:18:29.523Z,63.50
2022-08-22T13:21:00.964Z,63.50
2022-08-22T13:23:29.681Z,63.40
2022-08-22T13:26:09.860Z,63.30
2022-08-22T13:28:43.352Z,63.30
2022-08-22T13:31:23.497Z,63.30
2022-08-22T13:33:51.109Z,63.20
2022-08-22T13:36:20.448Z,63.30
2022-08-22T13:38:52.765Z,63.20
2022-08-22T13:41:23.376Z,63.20
2022-08-22T13:44:16.648Z,63.20
2022-08-22T13:47:13.240Z,63.20
2022-08-22T13:49:35.485Z,63.20
2022-08-22T13:52:14.527Z,63.10
2022-08-22T13:54:58.718Z,63.10
2022-08-22T13:57:28.425Z,63.10
2022-08-22T14:00:06.163Z,63.10
2022-08-22T14:02:43.263Z,63.00
2022-08-22T14:05:14.061Z,63.80
2022-08-22T14:07:46.385Z,62.90
2022-08-22T14:10:20.824Z,62.80
2022-08-22T14:13:14.213Z,62.90
2022-08-22T14:15:46.063Z,62.80
2022-08-22T14:18:18.592Z,62.80
2022-08-22T14:20:46.677Z,62.80
2022-08-22T14:23:18.147Z,62.70
2022-08-22T14:25:45.957Z,62.70
2022-08-22T14:28:23.073Z,62.70
2022-08-22T14:31:00.700Z,62.80
2022-08-22T14:33:33.058Z,62.70
2022-08-22T14:36:04.976Z,62.60
2022-08-22T14:38:37.021Z,62.60
2022-08-22T14:41:05.773Z,62.50
2022-08-22T14:43:53.612Z,62.50
2022-08-22T14:46:26.580Z,62.40
2022-08-22T14:49:28.651Z,62.30
2022-08-22T14:52:19.546Z,62.30
2022-08-22T14:55:06.154Z,62.40
2022-08-22T14:57:39.530Z,62.20
2022-08-22T15:00:15.291Z,62.30
2022-08-22T15:02:49.712Z,62.30
2022-08-22T15:05:24.398Z,62.50
2022-08-22T15:08:01.196Z,62.60
